Weather observations for the past three days for
Front Royal-warren County Airport
Imperial (Metric)
Date Time (edt) Wind (mph) Vis. (mi.) Weather Sky Cond. Temperature (ºF) Relative Humidity Wind Chill (°F) Heat Index (°F) Pressure Precipitation (in)
Air Dwpt 6 hour altimeter (in) sea level (mb) 1 hr 3 hr 6 hr
Max. Min.
03 02:15 S 3 10.00 Fair CLR 0 0 0% 30.01 0.0
03 01:55 S 5 10.00 Fair CLR 0 0 0% 30.01 0.0
03 01:35 S 5 10.00 Fair CLR 0 0 0% 30.02 0.0
03 00:35 S 5 10.00 Overcast OVC070 0 0 0% 30.04 0.0
02 23:55 S 3 10.00 Mostly Cloudy BKN070 0 0 0% 30.04 0.0
02 22:35 Calm 7.00 Partly Cloudy SCT070 0 0 0% 30.03 0.0
02 22:15 Calm 7.00 Fair CLR 0 0 0% 30.04 0.0
02 21:35 SW 3 10.00 Fair CLR 0 0 0% 30.04 0.0
02 21:15 Calm 10.00 Fair CLR 0 0 0% 30.04 0.0
02 20:55 SW 3 10.00 Mostly Cloudy BKN070 0 0 0% 30.04 0.0
02 20:35 Calm 10.00 Overcast BKN070 OVC090 0 0 0% 30.05 0.0
02 20:15 Calm 10.00 Overcast BKN070 OVC090 0 0 0% 30.05 0.0
02 19:55 Calm 10.00 Mostly Cloudy BKN090 0 0 0% 30.05 0.0 0.44
02 19:35 Calm 10.00 Partly Cloudy SCT070 SCT100 0 0 0% 30.04 0.0
02 19:15 Calm 10.00 Partly Cloudy SCT070 SCT090 SCT110 77 72.9 87% 78 30.03 0.0
02 18:55 Calm 10.00 Mostly Cloudy SCT070 BKN100 78.3 72.9 84% 81 30.04 0.0
02 18:35 Calm 10.00 Partly Cloudy SCT080 76.5 71.6 85% 77 30.05 0.0
02 18:15 Calm 10.00 Partly Cloudy SCT080 SCT090 77 71.6 83% 78 30.04 0.0
02 17:55 Calm 10.00 Mostly Cloudy BKN070 BKN085 0 0 0% 30.03 0.0
02 17:35 NE 3 10.00 Mostly Cloudy BKN070 BKN080 79.9 71.4 75% 83 30.04 0.0
02 17:15 Calm 10.00 Partly Cloudy SCT080 79.9 71.2 75% 83 30.05 0.0
02 16:55 Calm 10.00 Fair CLR 79.7 72 77% 83 30.05 0.0 0.44
02 16:35 E 3 10.00 Fair CLR 0 0 0% 30.05 0.0
02 15:55 E 6 10.00 Partly Cloudy SCT065 SCT070 SCT085 79.3 73.2 82% 83 30.07 0.0 0.04
02 15:35 E 7 10.00 Partly Cloudy SCT065 SCT085 0 0 0% 30.08 0.0 0.04
02 15:15 E 6 10.00 Light Rain SCT017 BKN042 OVC070 0 0 0% 30.07 0.0 0.04
02 14:55 NE 8 1.75 Heavy Rain SCT016 BKN031 OVC055 74.5 72.5 94% 30.06 0.0 0.37
02 14:35 NE 12 G 23 7.00 Heavy Rain BKN050 BKN070 OVC085 0 0 0% 30.05 0.0 0.03
02 14:15 S 3 10.00 Mostly Cloudy SCT050 SCT060 BKN075 93.9 73.4 51% 104 30.03 0.0
02 13:55 S 5 10.00 Overcast BKN060 BKN065 OVC085 95.4 73.4 49% 105 30.03 0.0
02 13:35 SE 3 10.00 Overcast BKN060 OVC075 93.4 72.7 51% 102 30.05 0.0
02 13:15 S 3 10.00 Mostly Cloudy BKN060 0 0 0% 30.06 0.0
02 12:55 Calm 10.00 Partly Cloudy SCT060 0 0 0% 30.07 0.0
02 11:55 S 3 10.00 Fair CLR 91.6 72.1 53% 99 30.07 0.0
02 11:35 S 5 10.00 Fair CLR 90.9 73.2 56% 100 30.07 0.0
02 11:15 SE 5 10.00 Fair CLR 89.8 73.4 59% 98 30.07 0.0
02 10:55 SE 5 10.00 Fair CLR 88.7 73.2 60% 97 30.07 0.0
02 10:35 S 3 10.00 Fair CLR 87.4 72.9 62% 95 30.07 0.0
02 10:15 SW 3 10.00 Fair CLR 85.3 71.1 63% 91 30.07 0.0
02 09:55 S 3 10.00 Fair CLR 83.5 71.2 67% 88 30.08 0.0
02 09:35 SW 5 10.00 Fair CLR 81.9 70.7 69% 86 30.08 0.0
02 09:15 S 6 10.00 Fair CLR 81 70.7 71% 85 30.08 0.0
02 08:55 S 5 10.00 Fair CLR 79.2 70.9 76% 82 30.08 0.0
02 08:35 S 5 10.00 Fair CLR 77.2 70.2 79% 79 30.07 0.0
02 08:15 Calm 10.00 Fair CLR 0 0 0% 30.08 0.0
02 07:55 NE 3 10.00 Fair CLR 74.3 70 86% 30.08 0.0
02 07:35 Calm 10.00 Fair CLR 0 0 0% 30.07 0.0
02 07:15 Calm 10.00 Fair CLR 0 0 0% 30.07 0.0
02 06:35 Calm 10.00 Fair CLR 0 0 0% 30.07 0.0
02 06:15 Calm 10.00 Partly Cloudy SCT100 71.6 69.1 92% 30.07 0.0
02 05:55 S 5 10.00 Fair CLR 0 0 0% 30.06 0.0
02 05:35 Calm 10.00 Fair CLR 0 0 0% 30.06 0.0
02 05:15 Calm 10.00 Fair CLR 72.5 69.3 90% 30.06 0.0
02 04:55 S 3 10.00 Fair CLR 73.2 69.3 87% 30.06 0.0
02 04:35 S 3 10.00 Fair CLR 75 68.9 81% 75 30.06 0.0
02 04:15 SW 3 10.00 Fair CLR 76.1 68.9 78% 77 30.06 0.0
02 03:55 SW 3 10.00 Partly Cloudy SCT120 75.2 68.9 81% 76 30.05 0.0
02 03:35 S 3 10.00 Partly Cloudy SCT120 74.7 69.3 83% 30.05 0.0
02 03:15 S 3 10.00 Partly Cloudy SCT120 73.8 69.8 88% 30.04 0.0
02 02:55 S 3 10.00 Fair CLR 73.9 70.5 89% 30.04 0.0
02 02:35 S 5 10.00 Fair CLR 74.1 70.7 89% 30.04 0.0
02 02:15 Calm 10.00 Fair CLR 75 70 84% 75 30.05 0.0
02 01:55 SW 3 10.00 Fair CLR 0 0 86 73.6 0% 30.06 0.0
02 01:35 Calm 10.00 Partly Cloudy SCT055 0 0 0% 30.06 0.0
02 01:15 Calm 10.00 Partly Cloudy SCT055 74.1 69.8 86% 30.06 0.0
02 00:55 Calm 10.00 Fair CLR 74.5 69.1 83% 30.06 0.0
02 00:35 Calm 10.00 Fair CLR 74.8 69.6 84% 30.05 0.0
02 00:15 Calm 10.00 Fair CLR 75.2 69.3 82% 76 30.04 0.0
01 23:55 Calm 10.00 Fair CLR 77 68.5 75% 79 30.02 0.0
01 23:35 Calm 10.00 Fair CLR 0 0 0% 30.02 0.0
01 23:15 Calm 10.00 Fair CLR 78.4 68.5 72% 81 30.02 0.0
01 22:55 S 3 10.00 Fair CLR 79 69.1 72% 82 30.01 0.0
01 22:35 W 3 10.00 Fair CLR 82.4 66.9 60% 85 30.01 0.0
01 22:15 W 3 10.00 Fair CLR 0 0 0% 30.02 0.0
01 21:55 W 5 10.00 Fair CLR 83.5 66.9 58% 86 30.02 0.0
01 21:35 W 5 10.00 Fair CLR 84.6 66.6 55% 87 30.01 0.0
01 21:15 W 7 10.00 Fair CLR 85.8 66.7 53% 88 30 0.0
01 20:55 W 7 10.00 Fair CLR 84.2 67.5 57% 87 30 0.0
01 20:35 W 5 10.00 Fair CLR 83.8 67.6 58% 87 29.99 0.0
01 20:15 W 5 10.00 Fair CLR 85.5 67.1 54% 88 29.98 0.0
01 19:55 W 7 10.00 Fair CLR 0 0 0% 29.98 0.0
01 19:35 W 10 10.00 Fair CLR 0 0 0% 29.97 0.0
01 18:35 W 5 10.00 Fair CLR 0 0 0% 29.98 0.0
01 18:15 Calm 10.00 Fair CLR 0 0 0% 29.98 0.0
01 17:55 Calm 10.00 Fair CLR 92.3 69.4 47% 98 29.98 0.0
01 17:35 W 8 10.00 Partly Cloudy SCT065 0 0 0% 29.98 0.0
01 17:15 NW 8 10.00 Partly Cloudy SCT065 92.5 68.7 46% 97 29.98 0.0
01 16:55 W 14 10.00 Mostly Cloudy BKN065 0 0 0% 29.98 0.0
01 16:35 W 5 10.00 Mostly Cloudy BKN065 BKN075 0 0 0% 29.98 0.0
01 16:15 SW 5 G 9 10.00 Overcast OVC070 0 0 0% 29.98 0.0
01 15:15 SW 5 10.00 Partly Cloudy SCT100 0 0 0% 30 0.0
01 14:55 SW 3 10.00 Mostly Cloudy BKN060 BKN100 0 0 0% 30.01 0.0
01 14:35 W 8 10.00 Mostly Cloudy BKN060 93.4 70.2 47% 100 30.02 0.0
01 14:15 W 12 10.00 Fair CLR 94.6 70.2 45% 101 30.02 0.0
01 13:55 NW 8 G 16 10.00 Fair CLR 0 0 0% 30.02 0.0
01 13:35 W 7 G 16 10.00 Partly Cloudy SCT120 94.1 69.8 45% 100 30.02 0.0
01 13:15 W 7 10.00 Partly Cloudy SCT050 SCT120 0 0 0% 30.02 0.0
01 12:55 SW 6 10.00 Partly Cloudy SCT050 SCT120 89.2 73.4 60% 98 30.02 0.0
01 12:35 S 8 10.00 Partly Cloudy SCT050 0 0 0% 30.03 0.0
01 12:15 S 5 10.00 Partly Cloudy SCT048 86.5 72.5 63% 93 30.04 0.0
01 11:55 S 3 10.00 Partly Cloudy SCT046 85.6 72.3 65% 92 30.04 0.0
01 11:35 S 8 10.00 Partly Cloudy SCT046 85.6 71.6 63% 91 30.04 0.0
01 11:15 S 5 10.00 Fair CLR 88 72.3 60% 95 30.05 0.0
01 10:55 S 8 10.00 Fair CLR 86 71.8 63% 92 30.04 0.0
01 10:35 S 3 10.00 Fair CLR 85.5 72.3 65% 92 30.06 0.0
01 10:15 S 6 10.00 Fair CLR 83.3 71.6 68% 88 30.06 0.0
01 09:55 S 8 10.00 Fair CLR 79.3 70.7 75% 82 30.06 0.0
01 09:35 SW 6 10.00 Fair CLR 0 0 0% 30.06 0.0
01 09:15 S 8 10.00 Fair CLR 80.6 70.9 72% 84 30.06 0.0
01 08:55 S 6 10.00 Fair CLR 0 0 0% 30.07 0.0
01 08:35 S 7 10.00 Fair CLR 0 0 0% 30.07 0.0
01 08:15 S 5 10.00 Fair CLR 0 0 0% 30.07 0.0
01 07:55 S 5 10.00 Fair CLR 0 0 0% 30.07 0.0
01 07:35 S 6 10.00 Fair CLR 0 0 0% 30.06 0.0
01 07:15 S 6 10.00 Fair CLR 0 0 0% 30.05 0.0
01 06:55 S 5 10.00 Fair CLR 0 0 0% 30.05 0.0
01 06:35 S 5 10.00 Fair CLR 0 0 0% 30.05 0.0
01 06:15 S 5 10.00 Fair CLR 0 0 0% 30.05 0.0
01 05:55 S 6 10.00 Fair CLR 0 0 0% 30.05 0.0
01 05:35 S 6 10.00 Fair CLR 0 0 0% 30.05 0.0
01 05:15 S 5 10.00 Fair CLR 0 0 0% 30.05 0.0
01 04:55 S 3 10.00 Fair CLR 0 0 0% 30.04 0.0
01 04:35 S 3 10.00 Fair CLR 0 0 0% 30.05 0.0
01 04:15 S 5 10.00 Fair CLR 0 0 0% 30.05 0.0
01 03:35 S 5 10.00 Fair CLR 0 0 0% 30.05 0.0
01 03:15 S 5 10.00 Fair CLR 0 0 0% 30.05 0.0
01 02:55 S 5 10.00 Fair CLR 0 0 0% 30.06 0.0
01 02:35 S 5 10.00 Fair CLR 0 0 0% 30.06 0.0
01 02:15 S 3 10.00 Fair CLR 0 0 0% 30.06 0.0
01 01:55 S 3 10.00 Fair CLR 0 0 0% 30.06 0.0
01 01:35 S 3 10.00 Fair CLR 0 0 0% 30.07 0.0
01 01:15 S 3 10.00 Partly Cloudy SCT120 0 0 0% 30.07 0.0
01 00:55 S 5 10.00 Mostly Cloudy BKN120 0 0 0% 30.08 0.0
01 00:35 S 3 10.00 Mostly Cloudy BKN120 0 0 0% 30.08 0.0
01 00:15 Calm 10.00 Overcast OVC110 0 0 0% 30.08 0.0
31 23:55 S 5 10.00 Overcast BKN100 OVC120 0 0 0% 30.09 0.0
31 23:35 S 5 10.00 Overcast OVC090 0 0 0% 30.09 0.0
31 23:15 S 3 10.00 Overcast OVC100 0 0 0% 30.09 0.0
31 22:55 Calm 10.00 Overcast BKN090 OVC110 0 0 0% 30.09 0.0
31 22:35 Calm 10.00 Overcast OVC090 0 0 0% 30.09 0.0
31 22:15 Calm 10.00 Overcast OVC110 0 0 0% 30.09 0.0
31 21:55 Calm 10.00 Partly Cloudy SCT110 0 0 0% 30.09 0.0
31 21:35 S 3 10.00 Fair CLR 0 0 0% 30.08 0.0
31 21:15 Calm 10.00 Fair CLR 0 0 0% 30.07 0.0
31 20:35 S 3 10.00 Partly Cloudy SCT080 0 0 0% 30.07 0.0
31 20:15 S 3 10.00 Fair CLR 0 0 0% 30.06 0.0
31 19:55 Calm 10.00 Partly Cloudy SCT110 77.9 73 85% 80 30.06 0.0
31 19:35 Calm 10.00 Overcast OVC110 0 0 0% 30.07 0.0
31 18:55 Calm 10.00 Mostly Cloudy BKN100 81.7 72.5 74% 87 30.07 0.0
31 18:35 Calm 10.00 Partly Cloudy SCT120 82.4 72.9 73% 88 30.07 0.0
31 18:15 Calm 10.00 Partly Cloudy SCT120 82.6 73.4 74% 89 30.08 0.0
31 17:55 Calm 10.00 Fair CLR 83.3 72.7 70% 89 30.08 0.0
31 17:35 Calm 10.00 Fair CLR 0 0 0% 30.08 0.0
31 16:55 Calm 10.00 Mostly Cloudy BKN120 83.5 71.1 66% 88 30.09 0.0
31 16:35 Calm 10.00 Partly Cloudy SCT120 82.9 70.9 67% 87 30.09 0.0
31 16:15 Calm 10.00 Fair CLR 0 0 0% 30.09 0.0
31 15:55 Calm 10.00 Fair CLR 0 0 0% 30.09 0.0
31 15:35 Calm 10.00 Fair CLR 0 0 0% 30.09 0.0
31 15:15 Calm 10.00 Partly Cloudy SCT120 0 0 0% 30.1 0.0
31 14:55 Calm 10.00 Mostly Cloudy BKN120 0 0 0% 30.11 0.0
31 14:35 Calm 10.00 Partly Cloudy SCT120 0 0 0% 30.11 0.0
31 14:15 Calm 10.00 Fair CLR 0 0 0% 30.11 0.0
31 13:55 Calm 10.00 Fair CLR 83.3 70.3 65% 88 30.11 0.0
31 13:15 W 3 10.00 Partly Cloudy SCT120 84.2 70.9 64% 89 30.11 0.0
31 12:55 S 3 10.00 Partly Cloudy SCT028 SCT120 0 0 0% 30.12 0.0
31 12:35 Calm 10.00 Mostly Cloudy SCT028 BKN120 0 0 0% 30.12 0.0
31 11:55 Calm 10.00 Fair CLR 0 0 0% 30.14 0.0
31 11:35 NW 3 10.00 Fair CLR 0 0 0% 30.14 0.0
31 11:15 NW 3 10.00 Fair CLR 0 0 0% 30.14 0.0
31 10:55 Calm 10.00 Fair CLR 0 0 0% 30.14 0.0
31 10:35 Calm 10.00 Partly Cloudy SCT120 0 0 0% 30.13 0.0
31 10:15 Calm 10.00 Mostly Cloudy BKN110 0 0 0% 30.13 0.0
31 09:35 Calm 10.00 Fair CLR 0 0 0% 30.14 0.0
31 09:15 Calm 10.00 Partly Cloudy SCT110 0 0 0% 30.14 0.0
31 08:55 Calm 10.00 Mostly Cloudy BKN110 0 0 0% 30.14 0.0
31 08:35 Calm 10.00 Fair CLR 0 0 0% 30.14 0.0
31 08:15 Calm 10.00 Fair CLR 0 0 0% 30.13 0.0
31 06:55 S 3 5.00 Fair with Haze CLR 0 0 0% 30.12 0.0
31 05:35 Calm 7.00 Fair CLR 0 0 0% 30.1 0.0
31 04:35 S 5 10.00 Fair CLR 0 0 0% 30.09 0.0
31 04:15 S 6 10.00 Fair CLR 0 0 0% 30.09 0.0
31 03:35 Calm 7.00 Fair CLR 0 0 0% 30.09 0.0
31 03:15 S 3 7.00 Fair CLR 0 0 0% 30.08 0.0
31 02:55 Calm 10.00 Fair CLR 0 0 0% 30.09 0.0
Date Time (edt) Wind (mph) Vis. (mi.) Weather Sky Cond. Air Dwpt Max. Min. Relative Humidity Wind Chill (°F) Heat Index (°F) altimeter (in) sea level (mb) 1 hr 3 hr 6 hr
6 hour
Temperature (ºF) Pressure Precipitation (in)